UAL2645 KFAT-KLAX
Flight info
| Callsign | UAL2645 |
|---|---|
| Flight time | N/A |
| Altitude | 23000 |
| Route | FRAME PONDD TAFTO MUPTT IRNMN2 |
| Aircraft | B738/M-VGDW/C |
Departure
| Time | N/A |
|---|---|
| Airport | Fresno Yosemite International Airport (KFAT) |
Arrival
| Time | 2026-05-04 02:17 |
|---|---|
| Airport | Los Angeles International Airport (KLAX) |
| Time | Latitude | Longitude | Altitude | Speed | Heading |
|---|---|---|---|---|---|
| 2026-05-04 02:01 | 34.02483 | -118.61875 | 8796 ft | 287 kts | 97° |
| 2026-05-04 02:02 | 34.02384 | -118.60666 | 8635 ft | 299 kts | 97° |
| 2026-05-04 02:02 | 34.02164 | -118.58113 | 8344 ft | 326 kts | 97° |
| 2026-05-04 02:02 | 34.01916 | -118.55354 | 7811 ft | 336 kts | 97° |
| 2026-05-04 02:02 | 34.01662 | -118.52569 | 7277 ft | 332 kts | 97° |
| 2026-05-04 02:03 | 34.01405 | -118.49813 | 6791 ft | 332 kts | 97° |
| 2026-05-04 02:03 | 34.01139 | -118.47048 | 6364 ft | 329 kts | 97° |
| 2026-05-04 02:03 | 34.01149 | -118.44393 | 6153 ft | 316 kts | 79° |
| 2026-05-04 02:03 | 34.01621 | -118.41925 | 6078 ft | 288 kts | 77° |
| 2026-05-04 02:04 | 34.02039 | -118.39675 | 6025 ft | 263 kts | 78° |
| 2026-05-04 02:04 | 34.02405 | -118.37607 | 5992 ft | 244 kts | 78° |
| 2026-05-04 02:04 | 34.02744 | -118.35640 | 5992 ft | 235 kts | 80° |
| 2026-05-04 02:04 | 34.02971 | -118.33705 | 6004 ft | 234 kts | 84° |
| 2026-05-04 02:05 | 34.03163 | -118.31736 | 6012 ft | 238 kts | 84° |
| 2026-05-04 02:05 | 34.03355 | -118.29742 | 6015 ft | 241 kts | 84° |
| 2026-05-04 02:05 | 34.03556 | -118.27724 | 6021 ft | 244 kts | 83° |
| 2026-05-04 02:05 | 34.03753 | -118.25701 | 6007 ft | 242 kts | 84° |
| 2026-05-04 02:06 | 34.03939 | -118.23706 | 5998 ft | 236 kts | 85° |
| 2026-05-04 02:06 | 34.04106 | -118.21746 | 6005 ft | 235 kts | 85° |
| 2026-05-04 02:06 | 34.04271 | -118.19770 | 6009 ft | 238 kts | 86° |
| 2026-05-04 02:06 | 34.04422 | -118.17803 | 6004 ft | 240 kts | 85° |
| 2026-05-04 02:07 | 34.04600 | -118.15800 | 6001 ft | 240 kts | 85° |
| 2026-05-04 02:07 | 34.04771 | -118.13810 | 5984 ft | 238 kts | 85° |
| 2026-05-04 02:07 | 34.04936 | -118.11842 | 5976 ft | 234 kts | 85° |
| 2026-05-04 02:07 | 34.05096 | -118.09891 | 5848 ft | 237 kts | 86° |
| 2026-05-04 02:08 | 34.05251 | -118.07890 | 5452 ft | 240 kts | 85° |
| 2026-05-04 02:08 | 34.05416 | -118.05921 | 5065 ft | 232 kts | 85° |
| 2026-05-04 02:08 | 34.05579 | -118.04012 | 4681 ft | 225 kts | 87° |
| 2026-05-04 02:08 | 34.05227 | -118.02236 | 4236 ft | 219 kts | 127° |
| 2026-05-04 02:09 | 34.04035 | -118.01229 | 3865 ft | 215 kts | 168° |
| 2026-05-04 02:09 | 34.02594 | -118.01445 | 3499 ft | 213 kts | 210° |
| 2026-05-04 02:09 | 34.01621 | -118.02748 | 3162 ft | 213 kts | 241° |
| 2026-05-04 02:09 | 34.00913 | -118.04334 | 2786 ft | 215 kts | 241° |
| 2026-05-04 02:10 | 34.00216 | -118.05898 | 2618 ft | 208 kts | 241° |
| 2026-05-04 02:10 | 33.99549 | -118.07415 | 2581 ft | 204 kts | 242° |
| 2026-05-04 02:10 | 33.98889 | -118.08918 | 2576 ft | 201 kts | 241° |
| 2026-05-04 02:10 | 33.98348 | -118.10395 | 2567 ft | 206 kts | 255° |
| 2026-05-04 02:11 | 33.98141 | -118.12107 | 2597 ft | 208 kts | 262° |
| 2026-05-04 02:11 | 33.97950 | -118.13815 | 2593 ft | 208 kts | 262° |
| 2026-05-04 02:11 | 33.97760 | -118.15545 | 2575 ft | 203 kts | 262° |
| 2026-05-04 02:11 | 33.97589 | -118.17161 | 2581 ft | 186 kts | 262° |
| 2026-05-04 02:12 | 33.97433 | -118.18659 | 2593 ft | 176 kts | 262° |
| 2026-05-04 02:12 | 33.97280 | -118.20124 | 2607 ft | 177 kts | 262° |
| 2026-05-04 02:12 | 33.97126 | -118.21608 | 2620 ft | 180 kts | 261° |
| 2026-05-04 02:12 | 33.96969 | -118.23112 | 2607 ft | 182 kts | 261° |
| 2026-05-04 02:13 | 33.96814 | -118.24605 | 2612 ft | 178 kts | 262° |
| 2026-05-04 02:13 | 33.96662 | -118.26076 | 2467 ft | 181 kts | 262° |
| 2026-05-04 02:13 | 33.96507 | -118.27577 | 2230 ft | 181 kts | 262° |
| 2026-05-04 02:13 | 33.96354 | -118.29052 | 2016 ft | 172 kts | 262° |
| 2026-05-04 02:14 | 33.96212 | -118.30438 | 1793 ft | 159 kts | 262° |
| 2026-05-04 02:14 | 33.96077 | -118.31745 | 1554 ft | 154 kts | 262° |
| 2026-05-04 02:14 | 33.95948 | -118.32995 | 1361 ft | 146 kts | 263° |
| 2026-05-04 02:14 | 33.95823 | -118.34210 | 1143 ft | 149 kts | 264° |
| 2026-05-04 02:15 | 33.95697 | -118.35442 | 961 ft | 148 kts | 265° |
| 2026-05-04 02:15 | 33.95579 | -118.36599 | 800 ft | 129 kts | 263° |
| 2026-05-04 02:15 | 33.95469 | -118.37664 | 595 ft | 133 kts | 262° |
| 2026-05-04 02:15 | 33.95357 | -118.38765 | 396 ft | 128 kts | 261° |
| 2026-05-04 02:16 | 33.95277 | -118.39540 | 298 ft | 129 kts | 261° |
| 2026-05-04 02:16 | 33.95265 | -118.39659 | 276 ft | 129 kts | 262° |
| 2026-05-04 02:16 | 33.95226 | -118.40048 | 220 ft | 129 kts | 262° |
| 2026-05-04 02:16 | 33.95123 | -118.41096 | 127 ft | 115 kts | 260° |
| 2026-05-04 02:17 | 33.95025 | -118.41747 | 125 ft | 42 kts | 245° |
| 2026-05-04 02:17 | 33.94921 | -118.41954 | 125 ft | 0 kts | 231° |
| 2026-05-04 02:18 | 33.94920 | -118.41954 | 125 ft | 0 kts | 231° |
| 2026-05-04 02:18 | 33.94907 | -118.41974 | 124 ft | 11 kts | 231° |
| 2026-05-04 02:18 | 33.94827 | -118.42095 | 123 ft | 21 kts | 232° |
| 2026-05-04 02:18 | 33.94740 | -118.42222 | 123 ft | 14 kts | 219° |
| 2026-05-04 02:19 | 33.94697 | -118.42231 | 122 ft | 1 kts | 154° |
| 2026-05-04 02:19 | 33.94695 | -118.42231 | 122 ft | 0 kts | 153° |
| 2026-05-04 02:21 | 33.94695 | -118.42230 | 122 ft | 5 kts | 152° |
| 2026-05-04 02:22 | 33.94689 | -118.42105 | 120 ft | 22 kts | 79° |
| 2026-05-04 02:22 | 33.94714 | -118.41918 | 125 ft | 23 kts | 82° |
| 2026-05-04 02:22 | 33.94657 | -118.41884 | 123 ft | 19 kts | 186° |
| 2026-05-04 02:22 | 33.94485 | -118.41854 | 122 ft | 28 kts | 171° |
| 2026-05-04 02:23 | 33.94302 | -118.41830 | 122 ft | 26 kts | 178° |
| 2026-05-04 02:23 | 33.94243 | -118.41840 | 126 ft | 2 kts | 258° |
| 2026-05-04 02:23 | 33.94254 | -118.41830 | 124 ft | 1 kts | 169° |
| 2026-05-04 02:23 | 33.94081 | -118.41803 | 123 ft | 24 kts | 175° |
| 2026-05-04 02:24 | 33.93920 | -118.41786 | 124 ft | 23 kts | 174° |
| 2026-05-04 02:24 | 33.93802 | -118.41674 | 120 ft | 23 kts | 117° |
| 2026-05-04 02:24 | 33.93809 | -118.41485 | 125 ft | 23 kts | 83° |
| 2026-05-04 02:24 | 33.93828 | -118.41303 | 121 ft | 18 kts | 83° |
| 2026-05-04 02:25 | 33.93842 | -118.41167 | 125 ft | 14 kts | 82° |
| 2026-05-04 02:25 | 33.93852 | -118.41069 | 123 ft | 10 kts | 83° |
| 2026-05-04 02:25 | 33.93861 | -118.40974 | 125 ft | 12 kts | 83° |
| 2026-05-04 02:25 | 33.93870 | -118.40891 | 123 ft | 9 kts | 83° |
| 2026-05-04 02:26 | 33.93878 | -118.40806 | 125 ft | 16 kts | 83° |
| 2026-05-04 02:26 | 33.93899 | -118.40608 | 122 ft | 28 kts | 83° |
| 2026-05-04 02:26 | 33.93923 | -118.40369 | 125 ft | 28 kts | 83° |
| 2026-05-04 02:26 | 33.93947 | -118.40144 | 125 ft | 26 kts | 83° |
| 2026-05-04 02:27 | 33.93967 | -118.39942 | 122 ft | 20 kts | 81° |
| 2026-05-04 02:27 | 33.94016 | -118.39901 | 124 ft | 8 kts | 351° |
| 2026-05-04 02:27 | 33.94042 | -118.39905 | 122 ft | 0 kts | 354° |